sensor_id;sensor_type;location;lat;lon;timestamp;P1;durP1;ratioP1;P2;durP2;ratioP2
49139;SDS011;34959;49.310;8.646;2023-03-01T00:02:06;1.98;;;0.90;;
49139;SDS011;34959;49.310;8.646;2023-03-01T00:04:32;1.20;;;0.85;;
49139;SDS011;34959;49.310;8.646;2023-03-01T00:06:57;4.90;;;1.10;;
49139;SDS011;34959;49.310;8.646;2023-03-01T00:09:23;2.65;;;0.80;;
49139;SDS011;34959;49.310;8.646;2023-03-01T00:11:48;1.60;;;0.90;;
49139;SDS011;34959;49.310;8.646;2023-03-01T00:14:14;2.45;;;1.27;;
49139;SDS011;34959;49.310;8.646;2023-03-01T00:16:41;4.70;;;1.73;;
49139;SDS011;34959;49.310;8.646;2023-03-01T00:19:12;5.43;;;1.20;;
49139;SDS011;34959;49.310;8.646;2023-03-01T00:21:38;2.28;;;1.08;;
49139;SDS011;34959;49.310;8.646;2023-03-01T00:24:05;9.57;;;1.25;;
49139;SDS011;34959;49.310;8.646;2023-03-01T00:26:30;2.13;;;1.20;;
49139;SDS011;34959;49.310;8.646;2023-03-01T00:28:56;1.92;;;1.30;;
49139;SDS011;34959;49.310;8.646;2023-03-01T00:31:23;4.43;;;1.20;;
49139;SDS011;34959;49.310;8.646;2023-03-01T00:33:54;1.88;;;1.30;;
49139;SDS011;34959;49.310;8.646;2023-03-01T00:36:27;7.25;;;1.25;;
49139;SDS011;34959;49.310;8.646;2023-03-01T00:38:54;3.22;;;1.58;;
49139;SDS011;34959;49.310;8.646;2023-03-01T00:41:20;2.17;;;1.42;;
49139;SDS011;34959;49.310;8.646;2023-03-01T00:43:47;3.88;;;1.33;;
49139;SDS011;34959;49.310;8.646;2023-03-01T00:46:14;2.13;;;1.38;;
49139;SDS011;34959;49.310;8.646;2023-03-01T00:48:41;2.28;;;1.33;;
49139;SDS011;34959;49.310;8.646;2023-03-01T00:51:11;2.70;;;1.40;;
49139;SDS011;34959;49.310;8.646;2023-03-01T00:53:47;3.88;;;1.50;;
49139;SDS011;34959;49.310;8.646;2023-03-01T00:56:15;2.35;;;1.20;;
49139;SDS011;34959;49.310;8.646;2023-03-01T00:58:41;2.80;;;1.70;;
49139;SDS011;34959;49.310;8.646;2023-03-01T01:01:07;3.17;;;1.38;;
49139;SDS011;34959;49.310;8.646;2023-03-01T01:04:03;2.97;;;1.33;;
49139;SDS011;34959;49.310;8.646;2023-03-01T01:06:30;2.40;;;1.48;;
49139;SDS011;34959;49.310;8.646;2023-03-01T01:08:57;2.70;;;1.35;;
49139;SDS011;34959;49.310;8.646;2023-03-01T01:11:23;1.77;;;1.33;;
49139;SDS011;34959;49.310;8.646;2023-03-01T01:13:49;2.38;;;1.40;;
49139;SDS011;34959;49.310;8.646;2023-03-01T01:16:15;2.78;;;1.75;;
49139;SDS011;34959;49.310;8.646;2023-03-01T01:18:41;2.45;;;1.30;;
49139;SDS011;34959;49.310;8.646;2023-03-01T01:21:08;2.13;;;1.30;;
49139;SDS011;34959;49.310;8.646;2023-03-01T01:23:36;3.13;;;1.52;;
49139;SDS011;34959;49.310;8.646;2023-03-01T01:26:09;2.35;;;1.40;;
49139;SDS011;34959;49.310;8.646;2023-03-01T01:28:36;2.55;;;1.38;;
49139;SDS011;34959;49.310;8.646;2023-03-01T01:31:02;3.13;;;1.50;;
49139;SDS011;34959;49.310;8.646;2023-03-01T01:33:27;3.63;;;1.35;;
49139;SDS011;34959;49.310;8.646;2023-03-01T01:35:53;1.83;;;1.20;;
49139;SDS011;34959;49.310;8.646;2023-03-01T01:38:19;2.15;;;1.52;;
49139;SDS011;34959;49.310;8.646;2023-03-01T01:40:45;2.05;;;1.38;;
49139;SDS011;34959;49.310;8.646;2023-03-01T01:43:31;2.10;;;1.60;;
49139;SDS011;34959;49.310;8.646;2023-03-01T01:46:06;2.00;;;1.40;;
49139;SDS011;34959;49.310;8.646;2023-03-01T01:48:45;2.95;;;1.40;;
49139;SDS011;34959;49.310;8.646;2023-03-01T01:51:14;3.33;;;1.60;;
49139;SDS011;34959;49.310;8.646;2023-03-01T01:53:43;2.55;;;1.50;;
49139;SDS011;34959;49.310;8.646;2023-03-01T01:56:10;7.18;;;1.48;;
49139;SDS011;34959;49.310;8.646;2023-03-01T01:58:37;3.42;;;1.38;;
49139;SDS011;34959;49.310;8.646;2023-03-01T02:01:03;2.47;;;1.55;;
49139;SDS011;34959;49.310;8.646;2023-03-01T02:03:30;1.95;;;1.40;;
49139;SDS011;34959;49.310;8.646;2023-03-01T02:08:28;3.22;;;1.75;;
49139;SDS011;34959;49.310;8.646;2023-03-01T02:10:57;2.25;;;1.40;;
49139;SDS011;34959;49.310;8.646;2023-03-01T02:13:25;2.13;;;1.50;;
49139;SDS011;34959;49.310;8.646;2023-03-01T02:15:51;3.58;;;1.50;;
49139;SDS011;34959;49.310;8.646;2023-03-01T02:18:17;2.53;;;1.70;;
49139;SDS011;34959;49.310;8.646;2023-03-01T02:20:59;2.38;;;1.60;;
49139;SDS011;34959;49.310;8.646;2023-03-01T02:23:31;2.28;;;1.50;;
49139;SDS011;34959;49.310;8.646;2023-03-01T02:25:58;2.67;;;1.77;;
49139;SDS011;34959;49.310;8.646;2023-03-01T02:28:35;2.47;;;1.50;;
49139;SDS011;34959;49.310;8.646;2023-03-01T02:31:02;2.72;;;1.45;;
49139;SDS011;34959;49.310;8.646;2023-03-01T02:33:47;2.83;;;1.70;;
49139;SDS011;34959;49.310;8.646;2023-03-01T02:36:17;1.98;;;1.45;;
49139;SDS011;34959;49.310;8.646;2023-03-01T02:38:44;2.63;;;1.58;;
49139;SDS011;34959;49.310;8.646;2023-03-01T02:41:13;2.97;;;1.70;;
49139;SDS011;34959;49.310;8.646;2023-03-01T02:43:40;2.30;;;1.70;;
49139;SDS011;34959;49.310;8.646;2023-03-01T02:46:07;2.50;;;1.60;;
49139;SDS011;34959;49.310;8.646;2023-03-01T02:48:48;2.00;;;1.42;;
49139;SDS011;34959;49.310;8.646;2023-03-01T02:53:59;2.58;;;1.60;;
49139;SDS011;34959;49.310;8.646;2023-03-01T02:56:32;3.17;;;1.80;;
49139;SDS011;34959;49.310;8.646;2023-03-01T02:58:57;2.28;;;1.73;;
49139;SDS011;34959;49.310;8.646;2023-03-01T03:01:25;3.15;;;1.63;;
49139;SDS011;34959;49.310;8.646;2023-03-01T03:04:05;2.65;;;1.63;;
49139;SDS011;34959;49.310;8.646;2023-03-01T03:06:31;2.38;;;1.60;;
49139;SDS011;34959;49.310;8.646;2023-03-01T03:08:57;3.22;;;1.80;;
49139;SDS011;34959;49.310;8.646;2023-03-01T03:11:22;3.80;;;1.40;;
49139;SDS011;34959;49.310;8.646;2023-03-01T03:13:48;3.25;;;1.67;;
49139;SDS011;34959;49.310;8.646;2023-03-01T03:16:14;2.17;;;1.58;;
49139;SDS011;34959;49.310;8.646;2023-03-01T03:18:39;2.28;;;1.40;;
49139;SDS011;34959;49.310;8.646;2023-03-01T03:21:08;3.33;;;1.80;;
49139;SDS011;34959;49.310;8.646;2023-03-01T03:23:35;2.88;;;1.92;;
49139;SDS011;34959;49.310;8.646;2023-03-01T03:26:01;2.45;;;1.55;;
49139;SDS011;34959;49.310;8.646;2023-03-01T03:28:29;2.67;;;1.80;;
49139;SDS011;34959;49.310;8.646;2023-03-01T03:30:55;9.45;;;1.90;;
49139;SDS011;34959;49.310;8.646;2023-03-01T03:33:21;7.75;;;1.98;;
49139;SDS011;34959;49.310;8.646;2023-03-01T03:35:47;6.55;;;1.80;;
49139;SDS011;34959;49.310;8.646;2023-03-01T03:38:14;12.23;;;2.55;;
49139;SDS011;34959;49.310;8.646;2023-03-01T03:40:41;5.03;;;1.67;;
49139;SDS011;34959;49.310;8.646;2023-03-01T03:43:10;3.53;;;1.73;;
49139;SDS011;34959;49.310;8.646;2023-03-01T03:45:37;2.92;;;1.70;;
49139;SDS011;34959;49.310;8.646;2023-03-01T03:48:03;2.17;;;1.73;;
49139;SDS011;34959;49.310;8.646;2023-03-01T03:50:30;3.03;;;1.67;;
49139;SDS011;34959;49.310;8.646;2023-03-01T03:52:55;4.30;;;1.90;;
49139;SDS011;34959;49.310;8.646;2023-03-01T03:55:21;3.97;;;1.80;;
49139;SDS011;34959;49.310;8.646;2023-03-01T03:57:47;2.88;;;1.80;;
49139;SDS011;34959;49.310;8.646;2023-03-01T04:00:20;2.85;;;1.90;;
49139;SDS011;34959;49.310;8.646;2023-03-01T04:02:47;3.42;;;1.92;;
49139;SDS011;34959;49.310;8.646;2023-03-01T04:05:13;4.53;;;2.22;;
49139;SDS011;34959;49.310;8.646;2023-03-01T04:07:40;5.50;;;1.60;;
49139;SDS011;34959;49.310;8.646;2023-03-01T04:10:07;2.50;;;1.90;;
49139;SDS011;34959;49.310;8.646;2023-03-01T04:12:35;2.97;;;1.83;;
49139;SDS011;34959;49.310;8.646;2023-03-01T04:15:02;2.75;;;2.10;;
49139;SDS011;34959;49.310;8.646;2023-03-01T04:17:37;2.50;;;1.85;;
49139;SDS011;34959;49.310;8.646;2023-03-01T04:20:06;2.22;;;1.60;;
49139;SDS011;34959;49.310;8.646;2023-03-01T04:22:42;2.35;;;1.65;;
49139;SDS011;34959;49.310;8.646;2023-03-01T04:25:08;2.42;;;1.77;;
49139;SDS011;34959;49.310;8.646;2023-03-01T04:27:34;2.75;;;1.80;;
49139;SDS011;34959;49.310;8.646;2023-03-01T04:30:00;2.33;;;1.88;;
49139;SDS011;34959;49.310;8.646;2023-03-01T04:32:27;3.60;;;2.00;;
49139;SDS011;34959;49.310;8.646;2023-03-01T04:34:53;3.92;;;1.98;;
49139;SDS011;34959;49.310;8.646;2023-03-01T04:37:18;7.13;;;1.90;;
49139;SDS011;34959;49.310;8.646;2023-03-01T04:39:43;3.67;;;1.95;;
49139;SDS011;34959;49.310;8.646;2023-03-01T04:42:13;5.95;;;2.28;;
49139;SDS011;34959;49.310;8.646;2023-03-01T04:44:38;2.63;;;1.70;;
49139;SDS011;34959;49.310;8.646;2023-03-01T04:47:04;2.63;;;1.90;;
49139;SDS011;34959;49.310;8.646;2023-03-01T04:49:29;2.80;;;2.00;;
49139;SDS011;34959;49.310;8.646;2023-03-01T04:51:55;4.18;;;1.90;;
49139;SDS011;34959;49.310;8.646;2023-03-01T04:54:23;4.93;;;1.88;;
49139;SDS011;34959;49.310;8.646;2023-03-01T04:56:48;2.88;;;1.90;;
49139;SDS011;34959;49.310;8.646;2023-03-01T04:59:14;2.33;;;1.90;;
49139;SDS011;34959;49.310;8.646;2023-03-01T05:01:39;2.95;;;1.90;;
49139;SDS011;34959;49.310;8.646;2023-03-01T05:04:07;3.22;;;1.83;;
49139;SDS011;34959;49.310;8.646;2023-03-01T05:06:37;2.50;;;1.90;;
49139;SDS011;34959;49.310;8.646;2023-03-01T05:09:02;2.92;;;1.98;;
49139;SDS011;34959;49.310;8.646;2023-03-01T05:11:28;2.35;;;1.60;;
49139;SDS011;34959;49.310;8.646;2023-03-01T05:13:58;3.85;;;1.77;;
49139;SDS011;34959;49.310;8.646;2023-03-01T05:16:24;2.72;;;2.03;;
49139;SDS011;34959;49.310;8.646;2023-03-01T05:18:49;3.25;;;1.83;;
49139;SDS011;34959;49.310;8.646;2023-03-01T05:21:18;3.22;;;2.20;;
49139;SDS011;34959;49.310;8.646;2023-03-01T05:23:44;2.67;;;1.85;;
49139;SDS011;34959;49.310;8.646;2023-03-01T05:26:10;2.50;;;2.00;;
49139;SDS011;34959;49.310;8.646;2023-03-01T05:28:37;2.90;;;1.80;;
49139;SDS011;34959;49.310;8.646;2023-03-01T05:31:03;2.97;;;1.73;;
49139;SDS011;34959;49.310;8.646;2023-03-01T05:33:34;3.00;;;2.03;;
49139;SDS011;34959;49.310;8.646;2023-03-01T05:36:03;3.05;;;2.00;;
49139;SDS011;34959;49.310;8.646;2023-03-01T05:38:30;4.05;;;1.80;;
49139;SDS011;34959;49.310;8.646;2023-03-01T05:40:56;4.70;;;1.85;;
49139;SDS011;34959;49.310;8.646;2023-03-01T05:43:21;4.13;;;1.88;;
49139;SDS011;34959;49.310;8.646;2023-03-01T05:45:46;4.22;;;1.92;;
49139;SDS011;34959;49.310;8.646;2023-03-01T05:48:12;2.97;;;1.90;;
49139;SDS011;34959;49.310;8.646;2023-03-01T05:50:39;2.90;;;1.92;;
49139;SDS011;34959;49.310;8.646;2023-03-01T05:53:06;2.60;;;2.10;;
49139;SDS011;34959;49.310;8.646;2023-03-01T05:55:35;4.93;;;1.90;;
49139;SDS011;34959;49.310;8.646;2023-03-01T05:58:02;2.67;;;1.90;;
49139;SDS011;34959;49.310;8.646;2023-03-01T06:00:29;4.47;;;2.20;;
49139;SDS011;34959;49.310;8.646;2023-03-01T06:02:55;2.13;;;1.55;;
49139;SDS011;34959;49.310;8.646;2023-03-01T06:05:21;2.60;;;1.92;;
49139;SDS011;34959;49.310;8.646;2023-03-01T06:07:47;3.20;;;1.85;;
49139;SDS011;34959;49.310;8.646;2023-03-01T06:10:13;2.55;;;1.77;;
49139;SDS011;34959;49.310;8.646;2023-03-01T06:12:39;2.88;;;1.90;;
49139;SDS011;34959;49.310;8.646;2023-03-01T06:15:06;3.30;;;1.90;;
49139;SDS011;34959;49.310;8.646;2023-03-01T06:17:33;3.15;;;2.25;;
49139;SDS011;34959;49.310;8.646;2023-03-01T06:20:06;3.55;;;2.00;;
49139;SDS011;34959;49.310;8.646;2023-03-01T06:25:00;3.33;;;2.17;;
49139;SDS011;34959;49.310;8.646;2023-03-01T06:27:25;3.70;;;2.40;;
49139;SDS011;34959;49.310;8.646;2023-03-01T06:29:50;3.33;;;2.03;;
49139;SDS011;34959;49.310;8.646;2023-03-01T06:32:16;4.03;;;2.10;;
49139;SDS011;34959;49.310;8.646;2023-03-01T06:34:41;2.75;;;1.80;;
49139;SDS011;34959;49.310;8.646;2023-03-01T06:37:07;4.43;;;1.90;;
49139;SDS011;34959;49.310;8.646;2023-03-01T06:39:32;3.22;;;1.90;;
49139;SDS011;34959;49.310;8.646;2023-03-01T06:41:58;2.97;;;2.20;;
49139;SDS011;34959;49.310;8.646;2023-03-01T06:44:24;2.60;;;2.05;;
49139;SDS011;34959;49.310;8.646;2023-03-01T06:46:49;2.70;;;1.80;;
49139;SDS011;34959;49.310;8.646;2023-03-01T06:49:15;2.75;;;2.10;;
49139;SDS011;34959;49.310;8.646;2023-03-01T06:51:41;3.42;;;2.00;;
49139;SDS011;34959;49.310;8.646;2023-03-01T06:54:07;3.80;;;2.40;;
49139;SDS011;34959;49.310;8.646;2023-03-01T06:56:32;3.00;;;1.98;;
49139;SDS011;34959;49.310;8.646;2023-03-01T06:58:58;2.80;;;1.90;;
49139;SDS011;34959;49.310;8.646;2023-03-01T07:01:23;2.85;;;2.17;;
49139;SDS011;34959;49.310;8.646;2023-03-01T07:03:49;2.72;;;1.83;;
49139;SDS011;34959;49.310;8.646;2023-03-01T07:06:14;2.83;;;2.10;;
49139;SDS011;34959;49.310;8.646;2023-03-01T07:08:39;4.18;;;2.17;;
49139;SDS011;34959;49.310;8.646;2023-03-01T07:11:05;3.72;;;2.28;;
49139;SDS011;34959;49.310;8.646;2023-03-01T07:13:31;5.97;;;2.50;;
49139;SDS011;34959;49.310;8.646;2023-03-01T07:15:56;3.13;;;2.17;;
49139;SDS011;34959;49.310;8.646;2023-03-01T07:18:22;2.60;;;2.05;;
49139;SDS011;34959;49.310;8.646;2023-03-01T07:20:47;2.75;;;1.95;;
49139;SDS011;34959;49.310;8.646;2023-03-01T07:23:13;4.45;;;2.33;;
49139;SDS011;34959;49.310;8.646;2023-03-01T07:25:38;5.40;;;2.35;;
49139;SDS011;34959;49.310;8.646;2023-03-01T07:28:04;2.95;;;2.17;;
49139;SDS011;34959;49.310;8.646;2023-03-01T07:30:29;3.33;;;2.10;;
49139;SDS011;34959;49.310;8.646;2023-03-01T07:32:55;3.38;;;2.05;;
49139;SDS011;34959;49.310;8.646;2023-03-01T07:35:22;3.83;;;2.47;;
49139;SDS011;34959;49.310;8.646;2023-03-01T07:37:48;2.55;;;2.15;;
49139;SDS011;34959;49.310;8.646;2023-03-01T07:40:13;5.10;;;2.35;;
49139;SDS011;34959;49.310;8.646;2023-03-01T07:42:38;3.08;;;2.30;;
49139;SDS011;34959;49.310;8.646;2023-03-01T07:45:04;3.35;;;2.20;;
49139;SDS011;34959;49.310;8.646;2023-03-01T07:47:31;4.05;;;2.35;;
49139;SDS011;34959;49.310;8.646;2023-03-01T07:49:56;5.15;;;2.10;;
49139;SDS011;34959;49.310;8.646;2023-03-01T07:52:22;3.55;;;2.42;;
49139;SDS011;34959;49.310;8.646;2023-03-01T07:54:47;4.30;;;2.60;;
49139;SDS011;34959;49.310;8.646;2023-03-01T07:57:13;3.63;;;2.20;;
49139;SDS011;34959;49.310;8.646;2023-03-01T07:59:38;6.97;;;2.45;;
49139;SDS011;34959;49.310;8.646;2023-03-01T08:02:04;2.80;;;2.10;;
49139;SDS011;34959;49.310;8.646;2023-03-01T08:04:30;4.63;;;2.22;;
49139;SDS011;34959;49.310;8.646;2023-03-01T08:06:55;4.50;;;2.30;;
49139;SDS011;34959;49.310;8.646;2023-03-01T08:09:21;9.25;;;2.50;;
49139;SDS011;34959;49.310;8.646;2023-03-01T08:11:46;5.40;;;2.35;;
49139;SDS011;34959;49.310;8.646;2023-03-01T08:14:12;3.85;;;2.20;;
49139;SDS011;34959;49.310;8.646;2023-03-01T08:16:37;4.80;;;2.70;;
49139;SDS011;34959;49.310;8.646;2023-03-01T08:19:04;2.97;;;2.15;;
49139;SDS011;34959;49.310;8.646;2023-03-01T08:21:30;4.57;;;2.40;;
49139;SDS011;34959;49.310;8.646;2023-03-01T08:23:55;3.53;;;2.40;;
49139;SDS011;34959;49.310;8.646;2023-03-01T08:26:21;4.43;;;3.05;;
49139;SDS011;34959;49.310;8.646;2023-03-01T08:28:47;3.38;;;2.55;;
49139;SDS011;34959;49.310;8.646;2023-03-01T08:31:18;4.03;;;2.20;;
49139;SDS011;34959;49.310;8.646;2023-03-01T08:33:46;3.65;;;2.50;;
49139;SDS011;34959;49.310;8.646;2023-03-01T08:36:31;4.07;;;2.70;;
49139;SDS011;34959;49.310;8.646;2023-03-01T08:38:58;3.67;;;2.08;;
49139;SDS011;34959;49.310;8.646;2023-03-01T08:41:23;3.92;;;2.38;;
49139;SDS011;34959;49.310;8.646;2023-03-01T08:43:49;5.72;;;2.72;;
49139;SDS011;34959;49.310;8.646;2023-03-01T08:46:15;3.28;;;2.60;;
49139;SDS011;34959;49.310;8.646;2023-03-01T08:48:40;4.07;;;2.72;;
49139;SDS011;34959;49.310;8.646;2023-03-01T08:51:15;3.78;;;2.35;;
49139;SDS011;34959;49.310;8.646;2023-03-01T08:53:41;4.18;;;2.42;;
49139;SDS011;34959;49.310;8.646;2023-03-01T08:56:07;6.93;;;2.42;;
49139;SDS011;34959;49.310;8.646;2023-03-01T08:58:33;5.57;;;2.58;;
49139;SDS011;34959;49.310;8.646;2023-03-01T09:00:59;2.70;;;2.30;;
49139;SDS011;34959;49.310;8.646;2023-03-01T09:03:25;4.03;;;2.35;;
49139;SDS011;34959;49.310;8.646;2023-03-01T09:05:51;4.32;;;2.30;;
49139;SDS011;34959;49.310;8.646;2023-03-01T09:08:17;3.05;;;2.53;;
49139;SDS011;34959;49.310;8.646;2023-03-01T09:10:43;11.60;;;7.60;;
49139;SDS011;34959;49.310;8.646;2023-03-01T09:13:08;10.98;;;7.00;;
49139;SDS011;34959;49.310;8.646;2023-03-01T09:15:36;7.10;;;5.05;;
49139;SDS011;34959;49.310;8.646;2023-03-01T09:18:02;8.68;;;5.25;;
49139;SDS011;34959;49.310;8.646;2023-03-01T09:20:27;6.78;;;4.50;;
49139;SDS011;34959;49.310;8.646;2023-03-01T09:22:53;7.45;;;4.72;;
49139;SDS011;34959;49.310;8.646;2023-03-01T09:25:18;6.15;;;4.45;;
49139;SDS011;34959;49.310;8.646;2023-03-01T09:27:44;6.63;;;4.57;;
49139;SDS011;34959;49.310;8.646;2023-03-01T09:30:09;6.22;;;4.20;;
49139;SDS011;34959;49.310;8.646;2023-03-01T09:32:35;6.03;;;4.15;;
49139;SDS011;34959;49.310;8.646;2023-03-01T09:35:00;8.43;;;4.32;;
49139;SDS011;34959;49.310;8.646;2023-03-01T09:37:28;7.80;;;4.18;;
49139;SDS011;34959;49.310;8.646;2023-03-01T09:39:54;5.90;;;3.88;;
49139;SDS011;34959;49.310;8.646;2023-03-01T09:42:19;5.65;;;3.83;;
49139;SDS011;34959;49.310;8.646;2023-03-01T09:44:52;5.25;;;3.60;;
49139;SDS011;34959;49.310;8.646;2023-03-01T09:47:32;5.93;;;4.47;;
49139;SDS011;34959;49.310;8.646;2023-03-01T09:50:13;5.47;;;3.88;;
49139;SDS011;34959;49.310;8.646;2023-03-01T09:55:15;5.03;;;3.35;;
49139;SDS011;34959;49.310;8.646;2023-03-01T09:57:50;5.13;;;3.47;;
49139;SDS011;34959;49.310;8.646;2023-03-01T10:00:30;6.38;;;3.90;;
49139;SDS011;34959;49.310;8.646;2023-03-01T10:03:24;6.38;;;3.80;;
49139;SDS011;34959;49.310;8.646;2023-03-01T10:06:06;5.75;;;3.30;;
49139;SDS011;34959;49.310;8.646;2023-03-01T10:08:38;4.93;;;3.70;;
49139;SDS011;34959;49.310;8.646;2023-03-01T10:11:15;6.70;;;3.63;;
49139;SDS011;34959;49.310;8.646;2023-03-01T10:13:50;15.50;;;8.40;;
49139;SDS011;34959;49.310;8.646;2023-03-01T10:19:36;9.77;;;4.80;;
49139;SDS011;34959;49.310;8.646;2023-03-01T10:22:13;7.70;;;4.70;;
49139;SDS011;34959;49.310;8.646;2023-03-01T10:24:40;8.10;;;4.70;;
49139;SDS011;34959;49.310;8.646;2023-03-01T10:27:07;6.00;;;4.00;;
49139;SDS011;34959;49.310;8.646;2023-03-01T10:32:19;5.22;;;3.83;;
49139;SDS011;34959;49.310;8.646;2023-03-01T10:34:46;8.23;;;4.00;;
49139;SDS011;34959;49.310;8.646;2023-03-01T10:37:14;6.15;;;3.80;;
49139;SDS011;34959;49.310;8.646;2023-03-01T10:42:37;6.13;;;3.55;;
49139;SDS011;34959;49.310;8.646;2023-03-01T10:45:23;7.43;;;3.53;;
49139;SDS011;34959;49.310;8.646;2023-03-01T10:48:08;4.55;;;3.22;;
49139;SDS011;34959;49.310;8.646;2023-03-01T10:50:40;5.38;;;3.20;;
49139;SDS011;34959;49.310;8.646;2023-03-01T10:53:47;4.80;;;3.47;;
49139;SDS011;34959;49.310;8.646;2023-03-01T10:56:07;5.50;;;3.47;;
49139;SDS011;34959;49.310;8.646;2023-03-01T11:01:32;5.35;;;3.50;;
49139;SDS011;34959;49.310;8.646;2023-03-01T11:06:31;5.32;;;3.28;;
49139;SDS011;34959;49.310;8.646;2023-03-01T11:09:18;5.30;;;3.40;;
49139;SDS011;34959;49.310;8.646;2023-03-01T11:11:45;4.47;;;3.20;;
49139;SDS011;34959;49.310;8.646;2023-03-01T11:14:23;7.00;;;3.65;;
49139;SDS011;34959;49.310;8.646;2023-03-01T11:22:56;11.23;;;3.63;;
49139;SDS011;34959;49.310;8.646;2023-03-01T11:25:26;7.03;;;3.38;;
49139;SDS011;34959;49.310;8.646;2023-03-01T11:27:52;4.75;;;3.13;;
49139;SDS011;34959;49.310;8.646;2023-03-01T11:32:48;5.88;;;2.80;;
49139;SDS011;34959;49.310;8.646;2023-03-01T11:35:23;4.85;;;3.58;;
49139;SDS011;34959;49.310;8.646;2023-03-01T11:40:37;6.32;;;3.25;;
49139;SDS011;34959;49.310;8.646;2023-03-01T11:43:15;8.45;;;3.53;;
49139;SDS011;34959;49.310;8.646;2023-03-01T11:48:37;7.57;;;3.60;;
49139;SDS011;34959;49.310;8.646;2023-03-01T11:51:09;5.63;;;3.42;;
49139;SDS011;34959;49.310;8.646;2023-03-01T11:56:41;8.93;;;3.55;;
49139;SDS011;34959;49.310;8.646;2023-03-01T12:09:40;4.85;;;2.83;;
49139;SDS011;34959;49.310;8.646;2023-03-01T12:12:23;5.25;;;3.20;;
49139;SDS011;34959;49.310;8.646;2023-03-01T12:17:47;5.88;;;3.33;;
49139;SDS011;34959;49.310;8.646;2023-03-01T12:20:32;7.68;;;3.15;;
49139;SDS011;34959;49.310;8.646;2023-03-01T12:25:39;7.82;;;3.38;;
49139;SDS011;34959;49.310;8.646;2023-03-01T12:28:18;5.82;;;3.13;;
49139;SDS011;34959;49.310;8.646;2023-03-01T12:38:59;4.35;;;2.85;;
49139;SDS011;34959;49.310;8.646;2023-03-01T12:41:55;13.10;;;9.40;;
49139;SDS011;34959;49.310;8.646;2023-03-01T12:50:21;9.38;;;3.85;;
49139;SDS011;34959;49.310;8.646;2023-03-01T12:52:57;6.63;;;3.38;;
49139;SDS011;34959;49.310;8.646;2023-03-01T12:55:31;8.52;;;3.13;;
49139;SDS011;34959;49.310;8.646;2023-03-01T13:03:00;8.60;;;3.17;;
49139;SDS011;34959;49.310;8.646;2023-03-01T13:08:55;4.43;;;2.28;;
49139;SDS011;34959;49.310;8.646;2023-03-01T13:11:41;6.93;;;2.45;;
49139;SDS011;34959;49.310;8.646;2023-03-01T13:16:46;5.68;;;2.63;;
49139;SDS011;34959;49.310;8.646;2023-03-01T13:21:43;3.88;;;2.13;;
49139;SDS011;34959;49.310;8.646;2023-03-01T13:32:22;5.57;;;2.33;;
49139;SDS011;34959;49.310;8.646;2023-03-01T13:37:40;17.13;;;8.30;;
49139;SDS011;34959;49.310;8.646;2023-03-01T13:42:42;30.67;;;5.25;;
49139;SDS011;34959;49.310;8.646;2023-03-01T13:45:15;10.98;;;4.00;;
49139;SDS011;34959;49.310;8.646;2023-03-01T13:47:44;6.07;;;3.40;;
49139;SDS011;34959;49.310;8.646;2023-03-01T13:50:45;6.10;;;3.53;;
49139;SDS011;34959;49.310;8.646;2023-03-01T13:53:04;8.77;;;3.05;;
49139;SDS011;34959;49.310;8.646;2023-03-01T13:55:41;6.95;;;3.20;;
49139;SDS011;34959;49.310;8.646;2023-03-01T13:58:27;4.38;;;2.70;;
49139;SDS011;34959;49.310;8.646;2023-03-01T14:00:55;4.68;;;2.90;;
49139;SDS011;34959;49.310;8.646;2023-03-01T14:03:21;9.80;;;2.88;;
49139;SDS011;34959;49.310;8.646;2023-03-01T14:06:00;4.60;;;2.65;;
49139;SDS011;34959;49.310;8.646;2023-03-01T14:08:34;4.18;;;2.40;;
49139;SDS011;34959;49.310;8.646;2023-03-01T14:19:29;7.35;;;3.08;;
49139;SDS011;34959;49.310;8.646;2023-03-01T14:21:59;4.63;;;2.65;;
49139;SDS011;34959;49.310;8.646;2023-03-01T14:24:29;5.32;;;3.20;;
49139;SDS011;34959;49.310;8.646;2023-03-01T14:26:54;4.75;;;2.63;;
49139;SDS011;34959;49.310;8.646;2023-03-01T14:29:27;5.65;;;2.78;;
49139;SDS011;34959;49.310;8.646;2023-03-01T14:32:10;5.18;;;2.90;;
49139;SDS011;34959;49.310;8.646;2023-03-01T14:34:46;9.95;;;3.10;;
49139;SDS011;34959;49.310;8.646;2023-03-01T14:37:33;4.45;;;2.55;;
49139;SDS011;34959;49.310;8.646;2023-03-01T14:40:00;4.60;;;2.85;;
49139;SDS011;34959;49.310;8.646;2023-03-01T14:42:28;4.40;;;2.83;;
49139;SDS011;34959;49.310;8.646;2023-03-01T14:44:56;5.88;;;2.88;;
49139;SDS011;34959;49.310;8.646;2023-03-01T14:47:25;4.18;;;2.70;;
49139;SDS011;34959;49.310;8.646;2023-03-01T14:49:54;5.30;;;2.78;;
49139;SDS011;34959;49.310;8.646;2023-03-01T14:52:23;5.18;;;2.67;;
49139;SDS011;34959;49.310;8.646;2023-03-01T14:57:24;5.60;;;2.30;;
49139;SDS011;34959;49.310;8.646;2023-03-01T14:59:51;3.38;;;2.25;;
49139;SDS011;34959;49.310;8.646;2023-03-01T15:02:20;5.20;;;2.72;;
49139;SDS011;34959;49.310;8.646;2023-03-01T15:04:54;4.40;;;2.47;;
49139;SDS011;34959;49.310;8.646;2023-03-01T15:07:26;4.10;;;2.53;;
49139;SDS011;34959;49.310;8.646;2023-03-01T15:09:55;5.22;;;2.88;;
49139;SDS011;34959;49.310;8.646;2023-03-01T15:14:52;5.43;;;2.47;;
49139;SDS011;34959;49.310;8.646;2023-03-01T15:17:26;3.85;;;2.58;;
49139;SDS011;34959;49.310;8.646;2023-03-01T15:19:57;5.95;;;2.58;;
49139;SDS011;34959;49.310;8.646;2023-03-01T15:22:24;6.43;;;2.63;;
49139;SDS011;34959;49.310;8.646;2023-03-01T15:24:51;3.40;;;2.38;;
49139;SDS011;34959;49.310;8.646;2023-03-01T15:27:18;5.80;;;2.80;;
49139;SDS011;34959;49.310;8.646;2023-03-01T15:29:50;3.00;;;2.40;;
49139;SDS011;34959;49.310;8.646;2023-03-01T15:35:00;4.38;;;2.22;;
49139;SDS011;34959;49.310;8.646;2023-03-01T15:37:38;4.70;;;2.60;;
49139;SDS011;34959;49.310;8.646;2023-03-01T15:42:50;5.78;;;2.63;;
49139;SDS011;34959;49.310;8.646;2023-03-01T15:47:46;3.92;;;2.85;;
49139;SDS011;34959;49.310;8.646;2023-03-01T15:52:48;3.53;;;2.28;;
49139;SDS011;34959;49.310;8.646;2023-03-01T15:55:21;3.78;;;2.67;;
49139;SDS011;34959;49.310;8.646;2023-03-01T15:57:49;4.07;;;2.22;;
49139;SDS011;34959;49.310;8.646;2023-03-01T16:00:15;3.20;;;2.42;;
49139;SDS011;34959;49.310;8.646;2023-03-01T16:02:43;4.78;;;2.65;;
49139;SDS011;34959;49.310;8.646;2023-03-01T16:05:13;3.85;;;2.70;;
49139;SDS011;34959;49.310;8.646;2023-03-01T16:07:42;3.72;;;2.35;;
49139;SDS011;34959;49.310;8.646;2023-03-01T16:10:07;5.45;;;2.42;;
49139;SDS011;34959;49.310;8.646;2023-03-01T16:12:33;3.30;;;2.33;;
49139;SDS011;34959;49.310;8.646;2023-03-01T16:14:58;3.88;;;2.60;;
49139;SDS011;34959;49.310;8.646;2023-03-01T16:17:24;4.53;;;2.10;;
49139;SDS011;34959;49.310;8.646;2023-03-01T16:19:50;3.70;;;2.40;;
49139;SDS011;34959;49.310;8.646;2023-03-01T16:22:16;3.60;;;2.40;;
49139;SDS011;34959;49.310;8.646;2023-03-01T16:24:41;3.03;;;2.50;;
49139;SDS011;34959;49.310;8.646;2023-03-01T16:27:07;5.03;;;2.50;;
49139;SDS011;34959;49.310;8.646;2023-03-01T16:29:32;3.35;;;2.40;;
49139;SDS011;34959;49.310;8.646;2023-03-01T16:32:01;4.10;;;2.47;;
49139;SDS011;34959;49.310;8.646;2023-03-01T16:34:27;3.45;;;2.20;;
49139;SDS011;34959;49.310;8.646;2023-03-01T16:36:52;3.17;;;2.33;;
49139;SDS011;34959;49.310;8.646;2023-03-01T16:39:18;4.45;;;2.05;;
49139;SDS011;34959;49.310;8.646;2023-03-01T16:41:43;4.07;;;2.53;;
49139;SDS011;34959;49.310;8.646;2023-03-01T16:44:08;5.15;;;2.40;;
49139;SDS011;34959;49.310;8.646;2023-03-01T16:46:34;3.47;;;2.00;;
49139;SDS011;34959;49.310;8.646;2023-03-01T16:49:00;4.32;;;2.13;;
49139;SDS011;34959;49.310;8.646;2023-03-01T16:51:25;3.25;;;2.20;;
49139;SDS011;34959;49.310;8.646;2023-03-01T16:53:51;3.42;;;2.00;;
49139;SDS011;34959;49.310;8.646;2023-03-01T16:56:16;2.80;;;1.92;;
49139;SDS011;34959;49.310;8.646;2023-03-01T16:58:42;3.40;;;2.35;;
49139;SDS011;34959;49.310;8.646;2023-03-01T17:01:12;3.58;;;2.13;;